createdAt,value
2023-03-26T00:00:16.919Z,5.50
2023-03-26T00:02:47.324Z,5.03
2023-03-26T00:05:17.488Z,6.82
2023-03-26T00:07:48.338Z,5.22
2023-03-26T00:10:18.198Z,5.38
2023-03-26T00:12:48.496Z,5.05
2023-03-26T00:15:18.594Z,6.00
2023-03-26T00:17:48.870Z,5.22
2023-03-26T00:20:18.834Z,4.93
2023-03-26T00:22:49.132Z,5.18
2023-03-26T00:25:19.314Z,5.70
2023-03-26T00:27:50.729Z,5.00
2023-03-26T00:30:20.704Z,4.93
2023-03-26T00:32:53.714Z,5.55
2023-03-26T00:35:25.132Z,5.82
2023-03-26T00:37:55.624Z,4.93
2023-03-26T00:40:25.831Z,5.30
2023-03-26T00:42:56.054Z,5.68
2023-03-26T00:45:25.818Z,5.80
2023-03-26T00:47:55.655Z,5.25
2023-03-26T00:50:25.870Z,4.88
2023-03-26T00:52:56.925Z,5.22
2023-03-26T00:55:27.184Z,5.03
2023-03-26T00:57:57.516Z,5.05
2023-03-26T01:00:37.625Z,6.35
2023-03-26T01:03:08.490Z,6.63
2023-03-26T01:05:44.228Z,5.70
2023-03-26T01:08:30.241Z,6.22
2023-03-26T01:11:06.392Z,6.03
2023-03-26T01:13:41.161Z,6.00
2023-03-26T01:16:31.190Z,7.57
2023-03-26T01:19:01.648Z,7.18
2023-03-26T01:21:32.870Z,7.22
2023-03-26T01:24:07.773Z,6.53
2023-03-26T01:26:40.934Z,7.47
2023-03-26T01:29:21.802Z,7.47
2023-03-26T01:32:36.102Z,6.40
2023-03-26T01:35:34.685Z,8.82
2023-03-26T01:38:36.684Z,11.35
2023-03-26T01:41:13.472Z,10.45
2023-03-26T01:44:06.228Z,9.15
2023-03-26T01:46:37.469Z,6.90
2023-03-26T01:49:14.254Z,5.18
2023-03-26T01:51:44.623Z,4.35
2023-03-26T01:54:24.409Z,3.97
2023-03-26T01:57:15.665Z,3.80
2023-03-26T01:59:57.749Z,2.47
2023-03-26T02:02:41.482Z,2.38
2023-03-26T02:05:32.427Z,2.38
2023-03-26T02:08:13.154Z,1.88
2023-03-26T02:10:50.844Z,2.20
2023-03-26T02:13:21.483Z,1.92
2023-03-26T02:16:00.825Z,1.77
2023-03-26T02:21:16.612Z,1.83
2023-03-26T02:23:49.823Z,1.88
2023-03-26T02:26:21.901Z,1.77
2023-03-26T02:29:13.530Z,2.28
2023-03-26T02:31:47.598Z,1.77
2023-03-26T02:34:17.914Z,2.05
2023-03-26T02:36:58.281Z,1.77
2023-03-26T02:42:04.848Z,2.10
2023-03-26T02:44:41.402Z,2.10
2023-03-26T02:47:11.657Z,1.70
2023-03-26T02:49:50.550Z,2.00
2023-03-26T02:52:41.133Z,2.10
2023-03-26T02:55:11.079Z,1.90
2023-03-26T02:57:43.277Z,1.90
2023-03-26T03:00:25.019Z,1.80
2023-03-26T03:03:14.288Z,2.08
2023-03-26T03:06:02.295Z,1.67
2023-03-26T03:08:37.469Z,2.03
2023-03-26T03:11:16.962Z,1.88
2023-03-26T03:13:50.829Z,1.77
2023-03-26T03:16:32.459Z,1.88
2023-03-26T03:19:11.836Z,1.98
2023-03-26T03:21:43.548Z,1.33
2023-03-26T03:24:14.991Z,1.73
2023-03-26T03:26:48.638Z,1.58
2023-03-26T03:29:40.943Z,1.80
2023-03-26T03:32:45.524Z,1.70
2023-03-26T03:35:19.941Z,2.20
2023-03-26T03:37:53.253Z,2.17
2023-03-26T03:40:23.489Z,2.70
2023-03-26T03:42:53.416Z,2.60
2023-03-26T03:45:33.000Z,2.67
2023-03-26T03:48:25.512Z,2.67
2023-03-26T03:50:57.308Z,3.00
2023-03-26T03:53:30.011Z,2.55
2023-03-26T03:56:03.160Z,2.75
2023-03-26T03:58:52.753Z,3.03
2023-03-26T04:04:09.750Z,2.97
2023-03-26T04:07:15.137Z,3.10
2023-03-26T04:10:09.948Z,2.85
2023-03-26T04:12:58.602Z,3.22
2023-03-26T04:15:46.818Z,3.20
2023-03-26T04:18:17.136Z,2.53
2023-03-26T04:20:48.664Z,2.97
2023-03-26T04:23:24.583Z,2.40
2023-03-26T04:26:05.414Z,2.05
2023-03-26T04:29:07.499Z,2.20
2023-03-26T04:31:39.414Z,2.25
2023-03-26T04:34:19.585Z,1.88
2023-03-26T04:36:59.886Z,2.40
2023-03-26T04:39:35.497Z,2.05
2023-03-26T04:42:25.384Z,1.50
2023-03-26T04:45:12.443Z,1.70
2023-03-26T04:47:44.127Z,1.50
2023-03-26T04:50:14.659Z,1.17
2023-03-26T04:52:45.392Z,1.10
2023-03-26T04:55:25.595Z,1.10
2023-03-26T04:58:06.630Z,1.20
2023-03-26T05:00:56.383Z,0.85
2023-03-26T05:03:26.824Z,1.40
2023-03-26T05:05:58.491Z,0.98
2023-03-26T05:08:29.933Z,1.13
2023-03-26T05:11:00.143Z,1.08
2023-03-26T05:13:35.770Z,1.30
2023-03-26T05:16:12.278Z,1.02
2023-03-26T05:18:47.675Z,1.02
2023-03-26T05:21:18.203Z,0.75
2023-03-26T05:23:48.360Z,1.08
2023-03-26T05:26:21.505Z,0.98
2023-03-26T05:28:52.687Z,0.70
2023-03-26T05:31:31.928Z,0.93
2023-03-26T05:34:02.739Z,1.10
2023-03-26T05:36:33.115Z,1.20
2023-03-26T05:39:26.819Z,0.90
2023-03-26T05:42:23.029Z,1.05
2023-03-26T05:45:13.610Z,1.20
2023-03-26T05:47:44.334Z,1.02
2023-03-26T05:50:14.200Z,1.35
2023-03-26T05:52:45.837Z,1.17
2023-03-26T05:55:34.521Z,1.30
2023-03-26T05:58:28.854Z,1.42
2023-03-26T06:01:20.681Z,1.17
2023-03-26T06:04:20.211Z,1.20
2023-03-26T06:07:13.107Z,0.98
2023-03-26T06:09:47.602Z,1.27
2023-03-26T06:12:17.670Z,1.00
2023-03-26T06:14:48.437Z,1.40
2023-03-26T06:17:25.916Z,1.75
2023-03-26T06:20:09.413Z,1.65
2023-03-26T06:22:42.921Z,1.05
2023-03-26T06:25:24.346Z,1.50
2023-03-26T06:28:06.884Z,1.63
2023-03-26T06:30:57.517Z,1.35
2023-03-26T06:33:43.380Z,1.35
2023-03-26T06:36:16.043Z,1.45
2023-03-26T06:38:46.354Z,1.30
2023-03-26T06:41:16.581Z,1.67
2023-03-26T06:43:59.608Z,1.77
2023-03-26T06:46:53.167Z,1.50
2023-03-26T06:49:45.904Z,1.20
2023-03-26T06:52:34.289Z,1.27
2023-03-26T06:55:12.193Z,1.17
2023-03-26T06:58:08.680Z,1.30
2023-03-26T07:03:55.879Z,1.30
2023-03-26T07:06:48.106Z,1.10
2023-03-26T07:09:49.160Z,1.25
2023-03-26T07:12:37.186Z,1.17
2023-03-26T07:15:25.686Z,1.17
2023-03-26T07:18:30.474Z,1.58
2023-03-26T07:21:01.516Z,2.15
2023-03-26T07:23:34.053Z,1.75
2023-03-26T07:27:04.024Z,1.92
2023-03-26T07:30:05.618Z,2.00
2023-03-26T07:33:01.075Z,2.47
2023-03-26T07:36:18.516Z,2.42
2023-03-26T07:39:39.337Z,2.50
2023-03-26T07:42:40.410Z,1.80
2023-03-26T07:45:39.204Z,1.65
2023-03-26T07:48:29.367Z,1.27
2023-03-26T07:51:19.766Z,1.38
2023-03-26T07:54:05.336Z,1.25
2023-03-26T07:57:36.735Z,1.17
2023-03-26T08:00:38.764Z,0.80
2023-03-26T08:03:32.038Z,0.85
2023-03-26T08:06:07.130Z,1.65
2023-03-26T08:09:04.708Z,0.82
2023-03-26T08:11:59.251Z,1.13
2023-03-26T08:14:42.420Z,0.98
2023-03-26T08:17:17.399Z,0.80
2023-03-26T08:19:55.858Z,0.80
2023-03-26T08:22:35.588Z,0.80
2023-03-26T08:25:11.679Z,0.82
2023-03-26T08:27:44.996Z,1.00
2023-03-26T08:30:22.463Z,1.00
2023-03-26T08:33:20.340Z,1.00
2023-03-26T08:35:51.126Z,1.00
2023-03-26T08:38:22.957Z,1.17
2023-03-26T08:41:16.360Z,0.90
2023-03-26T08:44:09.708Z,1.02
2023-03-26T08:46:57.718Z,1.20
2023-03-26T08:49:36.335Z,1.40
2023-03-26T08:52:18.027Z,1.25
2023-03-26T08:55:07.280Z,1.52
2023-03-26T08:58:05.518Z,0.95
2023-03-26T09:00:35.634Z,1.70
2023-03-26T09:03:48.323Z,1.00
2023-03-26T09:06:44.396Z,0.80
2023-03-26T09:09:35.369Z,0.90
2023-03-26T09:12:42.675Z,1.00
2023-03-26T09:15:51.405Z,0.73
2023-03-26T09:18:45.488Z,1.30
2023-03-26T09:21:33.618Z,1.00
2023-03-26T09:24:28.753Z,0.90
2023-03-26T09:27:22.101Z,0.77
2023-03-26T09:30:21.322Z,1.02
2023-03-26T09:33:29.765Z,0.90
2023-03-26T09:36:24.507Z,0.75
2023-03-26T09:39:01.553Z,1.05
2023-03-26T09:41:34.268Z,0.68
2023-03-26T09:46:56.636Z,0.93
2023-03-26T09:49:43.616Z,0.75
2023-03-26T09:52:13.802Z,1.02
2023-03-26T09:55:09.750Z,0.50
2023-03-26T09:57:39.922Z,0.88
2023-03-26T10:00:17.841Z,0.70
2023-03-26T10:03:27.434Z,0.82
2023-03-26T10:06:27.825Z,0.90
2023-03-26T10:09:00.712Z,0.60
2023-03-26T10:11:34.485Z,0.50
2023-03-26T10:14:08.389Z,0.63
2023-03-26T10:17:17.969Z,0.65
2023-03-26T10:20:03.539Z,0.63
2023-03-26T10:22:42.546Z,0.68
2023-03-26T10:25:32.089Z,0.77
2023-03-26T10:28:15.518Z,0.70
2023-03-26T10:31:20.490Z,1.08
2023-03-26T10:34:28.546Z,0.70
2023-03-26T10:37:05.030Z,0.70
2023-03-26T10:39:43.541Z,0.65
2023-03-26T10:45:23.637Z,0.63
2023-03-26T10:48:14.968Z,0.57
2023-03-26T10:50:56.156Z,0.65
2023-03-26T10:53:50.601Z,1.00
2023-03-26T10:56:53.048Z,0.77
2023-03-26T10:59:23.298Z,0.90
2023-03-26T11:02:30.512Z,0.80
2023-03-26T11:05:16.109Z,0.50
2023-03-26T11:07:54.981Z,0.73
2023-03-26T11:10:38.354Z,0.55
2023-03-26T11:13:35.753Z,0.85
2023-03-26T11:16:15.736Z,0.88
2023-03-26T11:19:25.712Z,0.68
2023-03-26T11:22:39.555Z,0.95
2023-03-26T11:25:32.469Z,0.98
2023-03-26T11:28:22.323Z,0.77
2023-03-26T11:31:10.698Z,1.00
2023-03-26T11:33:47.718Z,1.00
2023-03-26T11:39:16.675Z,1.27
2023-03-26T11:41:47.611Z,0.82
2023-03-26T11:44:37.948Z,0.77
2023-03-26T11:47:13.282Z,0.77
2023-03-26T11:49:44.204Z,0.68
2023-03-26T11:52:16.868Z,0.77
2023-03-26T11:54:49.549Z,0.50
2023-03-26T11:57:27.697Z,0.80
2023-03-26T12:00:05.496Z,0.60
2023-03-26T12:02:42.819Z,0.90
2023-03-26T12:05:17.101Z,1.30
2023-03-26T12:07:57.008Z,1.10
2023-03-26T12:10:39.924Z,0.98
2023-03-26T12:13:56.087Z,1.10
2023-03-26T12:16:25.894Z,1.30
2023-03-26T12:19:09.319Z,1.17
2023-03-26T12:21:54.044Z,1.35
2023-03-26T12:24:35.275Z,1.00
2023-03-26T12:27:29.597Z,1.23
2023-03-26T12:30:13.601Z,1.02
2023-03-26T12:32:46.915Z,0.90
2023-03-26T12:35:27.813Z,1.10
2023-03-26T12:38:25.179Z,1.13
2023-03-26T12:41:07.839Z,1.30
2023-03-26T12:44:47.212Z,1.40
2023-03-26T12:47:57.381Z,0.98
2023-03-26T12:49:27.798Z,1.05
2023-03-26T12:52:12.144Z,1.10
2023-03-26T12:55:12.135Z,1.17
2023-03-26T12:58:14.006Z,1.17
2023-03-26T13:04:06.684Z,1.13
2023-03-26T13:06:59.078Z,1.27
2023-03-26T13:09:45.243Z,1.33
2023-03-26T13:12:28.306Z,1.20
2023-03-26T13:15:16.819Z,1.02
2023-03-26T13:18:08.651Z,0.95
2023-03-26T13:20:43.177Z,1.60
2023-03-26T13:23:18.923Z,1.13
2023-03-26T13:25:55.057Z,2.13
2023-03-26T13:28:49.568Z,2.28
2023-03-26T13:31:41.155Z,1.60
2023-03-26T13:34:24.980Z,0.95
2023-03-26T13:37:13.928Z,1.40
2023-03-26T13:40:11.985Z,1.35
2023-03-26T13:42:56.819Z,1.50
2023-03-26T13:45:41.467Z,1.27
2023-03-26T13:48:20.626Z,1.48
2023-03-26T13:53:55.037Z,1.30
2023-03-26T13:56:34.044Z,1.23
2023-03-26T13:59:21.902Z,1.83
2023-03-26T14:01:57.798Z,1.60
2023-03-26T14:04:35.543Z,1.67
2023-03-26T14:07:20.178Z,1.60
2023-03-26T14:10:00.282Z,1.40
2023-03-26T14:12:50.345Z,1.05
2023-03-26T14:15:40.176Z,2.05
2023-03-26T14:18:32.850Z,1.95
2023-03-26T14:21:22.942Z,1.55
2023-03-26T14:24:11.477Z,1.48
2023-03-26T14:26:44.711Z,2.00
2023-03-26T14:29:14.469Z,2.28
2023-03-26T14:31:51.041Z,2.28
2023-03-26T14:34:44.311Z,2.22
2023-03-26T14:37:27.321Z,1.85
2023-03-26T14:40:18.111Z,2.08
2023-03-26T14:43:03.275Z,2.22
2023-03-26T14:46:20.264Z,1.98
2023-03-26T14:49:04.955Z,2.40
2023-03-26T14:51:57.962Z,2.25
2023-03-26T14:54:31.180Z,2.25
2023-03-26T14:57:11.063Z,2.85
2023-03-26T15:00:16.754Z,2.70
2023-03-26T15:03:11.157Z,3.13
2023-03-26T15:06:02.371Z,3.63
2023-03-26T15:08:53.451Z,3.67
2023-03-26T15:11:26.629Z,4.70
2023-03-26T15:14:25.161Z,3.15
2023-03-26T15:20:04.433Z,3.58
2023-03-26T15:23:09.521Z,3.97
2023-03-26T15:25:56.951Z,3.05
2023-03-26T15:28:45.098Z,3.58
2023-03-26T15:31:43.614Z,3.50
2023-03-26T15:34:44.272Z,4.07
2023-03-26T15:37:35.822Z,3.83
2023-03-26T15:40:34.527Z,2.67
2023-03-26T15:43:07.856Z,3.78
2023-03-26T15:46:00.258Z,4.28
2023-03-26T15:51:46.765Z,3.95
2023-03-26T15:55:21.830Z,3.25
2023-03-26T15:58:06.177Z,3.05
2023-03-26T16:01:04.198Z,3.55
2023-03-26T16:03:58.220Z,3.28
2023-03-26T16:06:32.165Z,2.75
2023-03-26T16:09:04.572Z,2.33
2023-03-26T16:12:00.039Z,2.78
2023-03-26T16:14:49.296Z,2.35
2023-03-26T16:17:24.442Z,2.70
2023-03-26T16:20:33.731Z,2.55
2023-03-26T16:23:07.330Z,1.80
2023-03-26T16:26:00.092Z,1.90
2023-03-26T16:28:33.771Z,2.05
2023-03-26T16:31:23.602Z,1.52
2023-03-26T16:34:01.104Z,1.88
2023-03-26T16:36:45.863Z,1.70
2023-03-26T16:39:38.952Z,1.55
2023-03-26T16:42:39.807Z,1.75
2023-03-26T16:45:35.890Z,1.20
2023-03-26T16:48:37.050Z,1.58
2023-03-26T16:51:19.714Z,1.50
2023-03-26T16:54:14.541Z,2.17
2023-03-26T16:56:52.463Z,1.70
2023-03-26T17:00:07.676Z,1.40
2023-03-26T17:02:53.601Z,1.25
2023-03-26T17:05:27.149Z,1.50
2023-03-26T17:08:36.501Z,1.52
2023-03-26T17:11:23.876Z,2.47
2023-03-26T17:14:13.144Z,2.35
2023-03-26T17:17:09.306Z,2.97
2023-03-26T17:19:50.993Z,2.65
2023-03-26T17:22:30.967Z,2.53
2023-03-26T17:25:21.628Z,2.38
2023-03-26T17:28:44.892Z,2.40
2023-03-26T17:31:32.762Z,2.10
2023-03-26T17:34:40.279Z,2.47
2023-03-26T17:37:18.561Z,2.53
2023-03-26T17:39:48.774Z,1.80
2023-03-26T17:42:19.914Z,1.92
2023-03-26T17:45:00.850Z,1.77
2023-03-26T17:47:36.858Z,1.85
2023-03-26T17:50:13.202Z,1.67
2023-03-26T17:53:17.801Z,1.48
2023-03-26T17:55:51.184Z,1.55
2023-03-26T17:58:28.161Z,1.75
2023-03-26T18:01:23.761Z,1.52
2023-03-26T18:04:03.850Z,1.42
2023-03-26T18:06:58.754Z,1.02
2023-03-26T18:09:47.916Z,0.85
2023-03-26T18:12:45.045Z,1.42
2023-03-26T18:15:43.853Z,1.30
2023-03-26T18:18:29.762Z,1.10
2023-03-26T18:21:03.445Z,1.10
2023-03-26T18:23:38.006Z,1.17
2023-03-26T18:26:35.616Z,1.10
2023-03-26T18:29:28.431Z,1.20
2023-03-26T18:32:08.526Z,1.15
2023-03-26T18:34:41.577Z,1.30
2023-03-26T18:37:35.336Z,1.10
2023-03-26T18:40:17.652Z,1.25
2023-03-26T18:42:52.860Z,1.35
2023-03-26T18:45:37.497Z,1.50
2023-03-26T18:48:15.207Z,1.23
2023-03-26T18:50:46.499Z,1.30
2023-03-26T18:53:22.519Z,0.98
2023-03-26T18:55:53.615Z,1.15
2023-03-26T18:58:34.000Z,1.80
2023-03-26T19:01:14.382Z,1.35
2023-03-26T19:03:54.861Z,1.23
2023-03-26T19:06:27.111Z,1.00
2023-03-26T19:08:59.276Z,1.50
2023-03-26T19:11:32.377Z,1.48
2023-03-26T19:14:23.703Z,0.98
2023-03-26T19:17:02.082Z,1.00
2023-03-26T19:19:35.356Z,1.13
2023-03-26T19:22:12.629Z,1.08
2023-03-26T19:24:43.953Z,0.95
2023-03-26T19:29:45.986Z,1.13
2023-03-26T19:32:22.557Z,1.38
2023-03-26T19:34:53.674Z,1.40
2023-03-26T19:37:26.402Z,1.92
2023-03-26T19:40:08.369Z,1.45
2023-03-26T19:42:43.467Z,1.45
2023-03-26T19:45:29.596Z,1.27
2023-03-26T19:48:14.417Z,2.13
2023-03-26T19:50:54.369Z,1.80
2023-03-26T19:53:36.654Z,2.08
2023-03-26T19:56:20.619Z,1.50
2023-03-26T19:58:53.924Z,1.85
2023-03-26T20:01:26.773Z,1.90
2023-03-26T20:04:01.056Z,1.60
2023-03-26T20:06:42.631Z,1.95
2023-03-26T20:09:15.308Z,2.22
2023-03-26T20:11:47.683Z,2.20
2023-03-26T20:14:26.950Z,2.17
2023-03-26T20:16:57.965Z,2.28
2023-03-26T20:19:28.570Z,2.50
2023-03-26T20:21:59.900Z,2.25
2023-03-26T20:24:32.316Z,1.55
2023-03-26T20:27:02.694Z,1.95
2023-03-26T20:29:32.339Z,2.00
2023-03-26T20:32:02.207Z,1.55
2023-03-26T20:34:33.202Z,1.50
2023-03-26T20:37:04.257Z,1.58
2023-03-26T20:39:35.570Z,2.10
2023-03-26T20:42:05.556Z,2.30
2023-03-26T20:44:35.222Z,2.15
2023-03-26T20:47:06.237Z,2.47
2023-03-26T20:49:36.525Z,2.10
2023-03-26T20:52:06.878Z,2.13
2023-03-26T20:54:36.962Z,1.75
2023-03-26T20:57:07.556Z,2.08
2023-03-26T20:59:37.268Z,1.85
2023-03-26T21:02:07.562Z,1.40
2023-03-26T21:04:37.199Z,1.92
2023-03-26T21:07:17.809Z,1.60
2023-03-26T21:09:50.333Z,2.10
2023-03-26T21:12:32.455Z,1.50
2023-03-26T21:15:09.964Z,1.85
2023-03-26T21:17:43.771Z,2.20
2023-03-26T21:20:14.910Z,2.17
2023-03-26T21:23:12.856Z,2.08
2023-03-26T21:25:50.070Z,2.28
2023-03-26T21:28:22.048Z,2.00
2023-03-26T21:30:53.254Z,2.13
2023-03-26T21:33:24.971Z,1.98
2023-03-26T21:35:58.641Z,2.70
2023-03-26T21:38:33.872Z,2.78
2023-03-26T21:41:05.043Z,2.78
2023-03-26T21:43:34.977Z,2.35
2023-03-26T21:46:06.061Z,2.42
2023-03-26T21:48:37.443Z,2.25
2023-03-26T21:51:09.291Z,2.40
2023-03-26T21:53:39.656Z,2.65
2023-03-26T21:56:19.924Z,4.43
2023-03-26T21:59:12.021Z,3.50
2023-03-26T22:02:20.495Z,3.00
2023-03-26T22:05:22.139Z,3.00
2023-03-26T22:08:06.585Z,2.92
2023-03-26T22:10:36.781Z,2.38
2023-03-26T22:13:06.458Z,3.00
2023-03-26T22:15:36.823Z,2.55
2023-03-26T22:18:08.550Z,2.75
2023-03-26T22:20:38.938Z,2.90
2023-03-26T22:23:10.519Z,2.15
2023-03-26T22:25:41.033Z,2.72
2023-03-26T22:28:10.844Z,2.67
2023-03-26T22:30:41.168Z,2.40
2023-03-26T22:33:14.086Z,2.70
2023-03-26T22:35:44.430Z,3.22
2023-03-26T22:38:14.726Z,2.58
2023-03-26T22:40:44.864Z,2.55
2023-03-26T22:43:14.446Z,2.65
2023-03-26T22:45:52.526Z,3.15
2023-03-26T22:48:24.582Z,4.10
2023-03-26T22:51:06.882Z,3.28
2023-03-26T22:53:37.688Z,3.10
2023-03-26T22:56:08.377Z,3.08
2023-03-26T22:58:39.178Z,3.22
2023-03-26T23:01:12.976Z,3.38
2023-03-26T23:03:44.093Z,3.10
2023-03-26T23:06:14.597Z,3.22
2023-03-26T23:08:44.838Z,3.67
2023-03-26T23:11:19.948Z,3.60
2023-03-26T23:13:50.479Z,4.22
2023-03-26T23:16:22.502Z,3.85
2023-03-26T23:21:23.638Z,4.00
2023-03-26T23:23:54.008Z,4.72
2023-03-26T23:26:25.421Z,4.07
2023-03-26T23:28:55.650Z,3.55
2023-03-26T23:31:26.468Z,3.50
2023-03-26T23:33:56.684Z,3.35
2023-03-26T23:36:26.475Z,3.25
2023-03-26T23:38:56.282Z,2.75
2023-03-26T23:41:26.497Z,3.95
2023-03-26T23:43:56.788Z,3.92
2023-03-26T23:46:31.262Z,4.05
2023-03-26T23:49:03.498Z,3.95
2023-03-26T23:51:34.075Z,3.67
2023-03-26T23:54:04.529Z,3.72
2023-03-26T23:56:34.440Z,4.28
2023-03-26T23:59:06.071Z,4.18
